createdAt,value
2018-04-23T00:00:50.580Z,9.10
2018-04-23T00:01:50.615Z,11.40
2018-04-23T00:02:50.637Z,9.30
2018-04-23T00:03:50.645Z,9.20
2018-04-23T00:04:50.666Z,9.20
2018-04-23T00:05:50.687Z,10.10
2018-04-23T00:06:50.709Z,9.40
2018-04-23T00:07:50.733Z,10.00
2018-04-23T00:08:50.752Z,8.40
2018-04-23T00:09:50.787Z,9.50
2018-04-23T00:10:50.808Z,11.20
2018-04-23T00:11:50.829Z,9.20
2018-04-23T00:12:50.851Z,9.10
2018-04-23T00:13:50.871Z,10.40
2018-04-23T00:14:50.904Z,9.30
2018-04-23T00:15:50.915Z,10.30
2018-04-23T00:16:50.937Z,8.60
2018-04-23T00:17:50.969Z,10.20
2018-04-23T00:18:51.003Z,9.70
2018-04-23T00:19:51.011Z,7.30
2018-04-23T00:20:51.036Z,8.30
2018-04-23T00:21:51.055Z,8.00
2018-04-23T00:22:51.081Z,11.40
2018-04-23T00:23:51.097Z,9.10
2018-04-23T00:24:51.119Z,10.70
2018-04-23T00:25:51.142Z,8.00
2018-04-23T00:26:51.175Z,8.70
2018-04-23T00:27:51.196Z,8.00
2018-04-23T00:28:51.223Z,9.60
2018-04-23T00:29:51.240Z,7.40
2018-04-23T00:30:51.260Z,11.10
2018-04-23T00:31:51.293Z,8.80
2018-04-23T00:32:51.303Z,8.60
2018-04-23T00:33:51.325Z,8.80
2018-04-23T00:34:51.357Z,10.20
2018-04-23T00:35:51.380Z,7.00
2018-04-23T00:36:51.400Z,8.20
2018-04-23T00:37:51.421Z,10.10
2018-04-23T00:38:51.443Z,9.60
2018-04-23T00:39:51.465Z,9.20
2018-04-23T00:40:51.486Z,9.50
2018-04-23T00:41:51.507Z,8.00
2018-04-23T00:42:51.530Z,9.30
2018-04-23T00:43:51.563Z,7.30
2018-04-23T00:44:51.584Z,8.20
2018-04-23T00:45:51.606Z,10.50
2018-04-23T00:46:51.627Z,7.80
2018-04-23T00:47:51.648Z,9.80
2018-04-23T00:48:51.682Z,7.70
2018-04-23T00:49:51.694Z,8.20
2018-04-23T00:50:51.713Z,8.50
2018-04-23T00:51:51.745Z,9.40
2018-04-23T00:52:51.769Z,7.50
2018-04-23T00:53:51.789Z,9.80
2018-04-23T00:54:51.810Z,8.30
2018-04-23T00:55:51.835Z,7.20
2018-04-23T00:56:51.853Z,11.20
2018-04-23T00:57:51.874Z,7.70
2018-04-23T00:58:51.908Z,10.60
2018-04-23T00:59:51.917Z,8.70
2018-04-23T01:00:51.939Z,8.70
2018-04-23T01:01:51.973Z,7.50
2018-04-23T01:02:52.001Z,10.00
2018-04-23T01:03:52.016Z,9.20
2018-04-23T01:04:52.037Z,8.50
2018-04-23T01:05:52.063Z,11.70
2018-04-23T01:06:52.079Z,11.50
2018-04-23T01:07:52.101Z,9.10
2018-04-23T01:08:52.122Z,8.50
2018-04-23T01:09:52.144Z,8.50
2018-04-23T01:10:52.165Z,10.70
2018-04-23T01:11:52.199Z,8.90
2018-04-23T01:12:52.220Z,8.40
2018-04-23T01:13:52.241Z,9.30
2018-04-23T01:14:52.263Z,10.50
2018-04-23T01:15:52.296Z,9.40
2018-04-23T01:16:52.305Z,10.40
2018-04-23T01:17:52.327Z,10.60
2018-04-23T01:18:52.348Z,11.40
2018-04-23T01:19:52.370Z,9.90
2018-04-23T01:20:52.392Z,11.40
2018-04-23T01:21:52.425Z,9.70
2018-04-23T01:22:52.447Z,8.90
2018-04-23T01:23:52.467Z,10.00
2018-04-23T01:24:52.498Z,9.50
2018-04-23T01:25:52.511Z,9.20
2018-04-23T01:26:52.532Z,12.30
2018-04-23T01:27:52.554Z,12.50
2018-04-23T01:28:52.578Z,10.40
2018-04-23T01:29:52.596Z,10.00
2018-04-23T01:30:52.618Z,9.80
2018-04-23T01:31:52.651Z,10.20
2018-04-23T01:32:52.685Z,11.50
2018-04-23T01:33:52.698Z,9.70
2018-04-23T01:34:52.715Z,11.50
2018-04-23T01:35:52.737Z,10.30
2018-04-23T01:36:52.758Z,9.70
2018-04-23T01:37:52.779Z,12.00
2018-04-23T01:38:52.800Z,12.30
2018-04-23T01:39:52.821Z,11.10
2018-04-23T01:40:52.843Z,12.00
2018-04-23T01:41:52.878Z,11.70
2018-04-23T01:42:52.902Z,10.60
2018-04-23T01:43:52.921Z,10.90
2018-04-23T01:44:52.946Z,12.60
2018-04-23T01:45:52.965Z,11.90
2018-04-23T01:46:52.985Z,11.00
2018-04-23T01:47:53.006Z,12.00
2018-04-23T01:48:53.027Z,11.00
2018-04-23T01:49:53.049Z,12.10
2018-04-23T01:50:53.070Z,14.00
2018-04-23T01:51:53.092Z,12.10
2018-04-23T01:52:53.113Z,12.70
2018-04-23T01:53:53.135Z,11.90
2018-04-23T01:54:53.158Z,13.60
2018-04-23T01:55:53.189Z,12.70
2018-04-23T01:56:53.210Z,12.40
2018-04-23T01:57:53.235Z,14.10
2018-04-23T01:58:53.254Z,14.80
2018-04-23T01:59:53.275Z,12.20
2018-04-23T02:00:53.296Z,14.20
2018-04-23T02:01:53.317Z,13.30
2018-04-23T02:02:53.341Z,13.70
2018-04-23T02:03:53.360Z,17.00
2018-04-23T02:04:53.381Z,14.90
2018-04-23T02:05:53.403Z,12.40
2018-04-23T02:06:53.423Z,12.20
2018-04-23T02:07:53.458Z,12.70
2018-04-23T02:08:53.467Z,13.10
2018-04-23T02:09:53.488Z,13.90
2018-04-23T02:10:53.509Z,12.80
2018-04-23T02:11:53.532Z,19.80
2018-04-23T02:12:53.553Z,15.70
2018-04-23T02:13:53.581Z,13.00
2018-04-23T02:14:53.608Z,14.60
2018-04-23T02:15:53.633Z,13.00
2018-04-23T02:16:53.658Z,13.10
2018-04-23T02:17:53.676Z,15.10
2018-04-23T02:18:53.694Z,13.40
2018-04-23T02:19:53.718Z,12.60
2018-04-23T02:20:53.737Z,14.90
2018-04-23T02:21:53.758Z,13.70
2018-04-23T02:22:53.803Z,13.90
2018-04-23T02:23:53.800Z,15.90
2018-04-23T02:24:53.823Z,14.50
2018-04-23T02:25:53.844Z,13.10
2018-04-23T02:26:53.865Z,15.50
2018-04-23T02:27:53.886Z,14.50
2018-04-23T02:28:53.911Z,15.90
2018-04-23T02:29:53.929Z,16.90
2018-04-23T02:30:53.951Z,13.90
2018-04-23T02:31:53.972Z,14.20
2018-04-23T02:32:53.997Z,16.30
2018-04-23T02:33:54.017Z,16.00
2018-04-23T02:34:54.048Z,14.20
2018-04-23T02:35:54.068Z,14.50
2018-04-23T02:36:54.097Z,14.70
2018-04-23T02:37:54.112Z,15.40
2018-04-23T02:38:54.133Z,15.00
2018-04-23T02:39:54.155Z,16.20
2018-04-23T02:40:54.176Z,15.00
2018-04-23T02:41:54.198Z,13.60
2018-04-23T02:42:54.219Z,14.60
2018-04-23T02:43:54.240Z,15.50
2018-04-23T02:44:54.266Z,14.80
2018-04-23T02:45:54.283Z,14.30
2018-04-23T02:46:54.305Z,15.40
2018-04-23T02:47:54.325Z,17.80
2018-04-23T02:48:54.347Z,14.90
2018-04-23T02:49:54.369Z,17.50
2018-04-23T02:50:54.390Z,16.10
2018-04-23T02:51:54.413Z,15.10
2018-04-23T02:52:54.432Z,15.70
2018-04-23T02:53:54.453Z,16.00
2018-04-23T02:54:54.476Z,19.40
2018-04-23T02:55:54.497Z,20.10
2018-04-23T02:56:54.518Z,16.60
2018-04-23T02:57:54.543Z,16.10
2018-04-23T02:58:54.562Z,17.30
2018-04-23T02:59:54.583Z,18.40
2018-04-23T03:00:54.617Z,17.10
2018-04-23T03:01:54.626Z,17.60
2018-04-23T03:02:54.648Z,16.70
2018-04-23T03:03:54.684Z,18.30
2018-04-23T03:04:54.691Z,17.60
2018-04-23T03:05:54.724Z,19.00
2018-04-23T03:06:54.744Z,21.30
2018-04-23T03:07:54.767Z,19.00
2018-04-23T03:08:54.788Z,18.00
2018-04-23T03:09:54.809Z,20.40
2018-04-23T03:10:54.830Z,19.30
2018-04-23T03:11:54.856Z,18.10
2018-04-23T03:12:54.873Z,18.40
2018-04-23T03:13:54.895Z,18.40
2018-04-23T03:14:54.916Z,17.90
2018-04-23T03:15:54.937Z,18.70
2018-04-23T03:16:54.958Z,19.60
2018-04-23T03:17:54.980Z,20.80
2018-04-23T03:18:55.001Z,18.70
2018-04-23T03:19:55.024Z,21.70
2018-04-23T03:20:55.044Z,21.00
2018-04-23T03:21:55.067Z,20.80
2018-04-23T03:22:55.095Z,20.20
2018-04-23T03:23:55.108Z,19.00
2018-04-23T03:24:55.129Z,18.30
2018-04-23T03:25:55.151Z,20.20
2018-04-23T03:26:55.172Z,21.40
2018-04-23T03:27:55.193Z,17.90
2018-04-23T03:28:55.215Z,21.10
2018-04-23T03:29:55.236Z,20.30
2018-04-23T03:30:55.259Z,19.70
2018-04-23T03:31:55.284Z,19.50
2018-04-23T03:32:55.301Z,19.00
2018-04-23T03:33:55.323Z,20.70
2018-04-23T03:34:55.344Z,20.70
2018-04-23T03:35:55.365Z,20.10
2018-04-23T03:36:55.389Z,18.70
2018-04-23T03:37:55.407Z,20.40
2018-04-23T03:38:55.429Z,26.00
2018-04-23T03:39:55.450Z,24.50
2018-04-23T03:40:55.474Z,22.00
2018-04-23T03:41:55.496Z,20.80
2018-04-23T03:42:55.514Z,21.50
2018-04-23T03:43:55.535Z,22.90
2018-04-23T03:44:55.557Z,19.90
2018-04-23T03:45:55.578Z,18.70
2018-04-23T03:46:55.603Z,19.20
2018-04-23T03:47:55.621Z,20.80
2018-04-23T03:48:55.642Z,21.10
2018-04-23T03:49:55.670Z,20.20
2018-04-23T03:50:55.688Z,19.30
2018-04-23T03:51:55.707Z,22.60
2018-04-23T03:52:55.717Z,19.30
2018-04-23T03:53:55.741Z,20.30
2018-04-23T03:54:55.774Z,18.00
2018-04-23T03:55:55.781Z,21.60
2018-04-23T03:56:55.801Z,21.20
2018-04-23T03:57:55.822Z,20.40
2018-04-23T03:58:55.844Z,19.80
2018-04-23T03:59:55.865Z,18.20
2018-04-23T04:00:55.886Z,20.70
2018-04-23T04:01:55.914Z,18.50
2018-04-23T04:02:55.929Z,18.40
2018-04-23T04:03:55.950Z,17.90
2018-04-23T04:04:55.974Z,19.10
2018-04-23T04:05:55.992Z,20.50
2018-04-23T04:06:56.015Z,23.10
2018-04-23T04:07:56.044Z,18.20
2018-04-23T04:08:56.058Z,16.30
2018-04-23T04:09:56.078Z,17.30
2018-04-23T04:10:56.100Z,18.00
2018-04-23T04:11:56.121Z,17.10
2018-04-23T04:12:56.156Z,18.20
2018-04-23T04:13:56.164Z,16.90
2018-04-23T04:14:56.187Z,16.60
2018-04-23T04:15:56.207Z,20.10
2018-04-23T04:16:56.236Z,20.60
2018-04-23T04:17:56.252Z,17.60
2018-04-23T04:18:56.271Z,15.70
2018-04-23T04:19:56.293Z,17.20
2018-04-23T04:20:56.317Z,16.30
2018-04-23T04:21:56.335Z,18.20
2018-04-23T04:22:56.357Z,17.00
2018-04-23T04:23:56.378Z,18.50
2018-04-23T04:24:56.401Z,15.90
2018-04-23T04:25:56.421Z,17.50
2018-04-23T04:26:56.442Z,18.30
2018-04-23T04:27:56.463Z,17.70
2018-04-23T04:28:56.473Z,15.20
2018-04-23T04:29:56.506Z,15.40
2018-04-23T04:30:56.516Z,16.00
2018-04-23T04:31:56.538Z,18.80
2018-04-23T04:32:56.559Z,14.50
2018-04-23T04:33:56.580Z,17.20
2018-04-23T04:34:56.602Z,15.80
2018-04-23T04:35:56.623Z,16.10
2018-04-23T04:36:56.646Z,13.60
2018-04-23T04:37:56.665Z,16.20
2018-04-23T04:38:56.703Z,16.30
2018-04-23T04:39:56.712Z,15.50
2018-04-23T04:40:56.730Z,14.80
2018-04-23T04:41:56.751Z,15.60
2018-04-23T04:42:56.773Z,15.70
2018-04-23T04:43:56.809Z,15.20
2018-04-23T04:44:56.815Z,17.70
2018-04-23T04:45:56.836Z,15.90
2018-04-23T04:46:56.858Z,15.30
2018-04-23T04:47:56.880Z,15.10
2018-04-23T04:48:56.901Z,15.40
2018-04-23T04:49:56.923Z,16.60
2018-04-23T04:50:56.943Z,15.60
2018-04-23T04:51:56.964Z,14.80
2018-04-23T04:52:56.986Z,16.30
2018-04-23T04:53:57.008Z,16.20
2018-04-23T04:54:57.029Z,13.40
2018-04-23T04:55:57.051Z,14.70
2018-04-23T04:56:57.073Z,15.60
2018-04-23T04:57:57.093Z,18.10
2018-04-23T04:58:57.143Z,14.10
2018-04-23T04:59:57.136Z,16.90
2018-04-23T05:00:57.158Z,17.30
2018-04-23T05:01:57.178Z,13.40
2018-04-23T05:02:57.204Z,16.00
2018-04-23T05:03:57.227Z,16.30
2018-04-23T05:04:57.243Z,15.70
2018-04-23T05:05:57.295Z,16.10
2018-04-23T05:06:57.286Z,16.40
2018-04-23T05:07:57.307Z,13.20
2018-04-23T05:08:57.328Z,15.30
2018-04-23T05:09:57.349Z,17.60
2018-04-23T05:10:57.378Z,16.90
2018-04-23T05:11:57.391Z,16.60
2018-04-23T05:12:57.415Z,18.20
2018-04-23T05:13:57.434Z,18.10
2018-04-23T05:14:57.459Z,16.60
2018-04-23T05:15:57.478Z,15.00
2018-04-23T05:16:57.499Z,15.90
2018-04-23T05:17:57.520Z,17.30
2018-04-23T05:18:57.542Z,15.30
2018-04-23T05:19:57.563Z,14.10
2018-04-23T05:20:57.584Z,16.40
2018-04-23T05:21:57.606Z,15.90
2018-04-23T05:22:57.628Z,12.50
2018-04-23T05:23:57.648Z,14.10
2018-04-23T05:24:57.670Z,13.50
2018-04-23T05:25:57.691Z,13.10
2018-04-23T05:26:57.725Z,13.50
2018-04-23T05:27:57.760Z,16.20
2018-04-23T05:28:57.768Z,15.30
2018-04-23T05:29:57.827Z,11.00
2018-04-23T05:30:57.810Z,13.50
2018-04-23T05:31:57.831Z,13.30
2018-04-23T05:32:57.856Z,12.70
2018-04-23T05:33:57.875Z,14.90
2018-04-23T05:34:57.896Z,13.00
2018-04-23T05:35:57.917Z,12.90
2018-04-23T05:36:57.951Z,13.00
2018-04-23T05:37:57.960Z,11.40
2018-04-23T05:38:57.982Z,13.70
2018-04-23T05:39:58.016Z,17.20
2018-04-23T05:40:58.039Z,18.40
2018-04-23T05:41:58.058Z,15.30
2018-04-23T05:42:58.080Z,11.50
2018-04-23T05:43:58.124Z,12.50
2018-04-23T05:44:58.125Z,13.20
2018-04-23T05:45:58.144Z,19.50
2018-04-23T05:46:58.165Z,15.80
2018-04-23T05:47:58.205Z,20.90
2018-04-23T05:48:58.220Z,15.80
2018-04-23T05:49:58.242Z,12.90
2018-04-23T05:50:58.268Z,12.10
2018-04-23T05:51:58.284Z,12.60
2018-04-23T05:52:58.305Z,16.50
2018-04-23T05:53:58.339Z,11.20
2018-04-23T05:54:58.363Z,12.50
2018-04-23T05:55:58.383Z,12.90
2018-04-23T05:56:58.404Z,11.60
2018-04-23T05:57:58.425Z,9.60
2018-04-23T05:58:58.449Z,14.80
2018-04-23T05:59:58.468Z,14.80
2018-04-23T06:00:58.489Z,11.70
2018-04-23T06:01:58.522Z,10.90
2018-04-23T06:02:58.547Z,11.10
2018-04-23T06:03:58.565Z,20.10
2018-04-23T06:04:58.586Z,16.20
2018-04-23T06:05:58.608Z,13.20
2018-04-23T06:06:58.642Z,11.40
2018-04-23T06:07:58.663Z,11.60
2018-04-23T06:08:58.686Z,13.10
2018-04-23T06:09:58.705Z,13.50
2018-04-23T06:10:58.727Z,12.30
2018-04-23T06:11:58.761Z,13.70
2018-04-23T06:12:58.795Z,13.40
2018-04-23T06:13:58.803Z,13.20
2018-04-23T06:14:58.824Z,12.60
2018-04-23T06:15:58.858Z,12.10
2018-04-23T06:16:58.880Z,10.80
2018-04-23T06:17:58.902Z,10.30
2018-04-23T06:18:58.923Z,10.20
2018-04-23T06:19:58.944Z,8.70
2018-04-23T06:20:58.978Z,12.20
2018-04-23T06:21:58.999Z,9.00
2018-04-23T06:22:59.020Z,15.60
2018-04-23T06:23:59.042Z,10.60
2018-04-23T06:24:59.076Z,13.10
2018-04-23T06:25:59.120Z,11.10
2018-04-23T06:26:59.119Z,10.00
2018-04-23T06:27:59.141Z,11.70
2018-04-23T06:28:59.173Z,13.10
2018-04-23T06:29:59.208Z,13.60
2018-04-23T06:30:59.215Z,13.00
2018-04-23T06:31:59.237Z,9.60
2018-04-23T06:32:59.260Z,12.60
2018-04-23T06:33:59.293Z,11.60
2018-04-23T06:34:59.313Z,10.90
2018-04-23T06:35:59.336Z,8.80
2018-04-23T06:36:59.358Z,14.60
2018-04-23T06:37:59.405Z,8.90
2018-04-23T06:38:59.414Z,11.40
2018-04-23T06:39:59.434Z,9.90
2018-04-23T06:40:59.454Z,9.90
2018-04-23T06:41:59.477Z,8.00
2018-04-23T06:42:59.510Z,14.80
2018-04-23T06:43:59.532Z,15.40
2018-04-23T06:44:59.554Z,10.10
2018-04-23T06:45:59.575Z,9.60
2018-04-23T06:46:59.608Z,10.10
2018-04-23T06:47:59.629Z,8.30
2018-04-23T06:48:59.649Z,10.10
2018-04-23T06:49:59.671Z,16.90
2018-04-23T06:50:59.706Z,12.10
2018-04-23T06:51:59.728Z,7.00
2018-04-23T06:52:59.749Z,9.20
2018-04-23T06:53:59.769Z,8.50
2018-04-23T06:54:59.796Z,8.10
2018-04-23T06:55:59.825Z,7.30
2018-04-23T06:56:59.847Z,9.20
2018-04-23T06:57:59.868Z,7.40
2018-04-23T06:58:59.926Z,8.10
2018-04-23T06:59:59.924Z,7.60
2018-04-23T07:00:59.945Z,9.90
2018-04-23T07:01:59.967Z,8.70
2018-04-23T07:03:00.001Z,12.70
2018-04-23T07:04:00.038Z,6.60
2018-04-23T07:05:00.109Z,10.00
2018-04-23T07:06:00.066Z,11.00
2018-04-23T07:07:00.088Z,8.80
2018-04-23T07:08:00.125Z,9.50
2018-04-23T07:09:00.142Z,10.60
2018-04-23T07:10:00.164Z,10.30
2018-04-23T07:11:00.196Z,7.80
2018-04-23T07:12:00.218Z,10.50
2018-04-23T07:13:00.239Z,9.20
2018-04-23T07:14:00.262Z,7.00
2018-04-23T07:15:00.297Z,8.70
2018-04-23T07:16:00.317Z,10.10
2018-04-23T07:17:00.337Z,14.10
2018-04-23T07:18:00.371Z,9.60
2018-04-23T07:19:00.392Z,8.00
2018-04-23T07:20:00.417Z,11.30
2018-04-23T07:21:00.434Z,15.60
2018-04-23T07:22:00.470Z,21.20
2018-04-23T07:23:00.491Z,12.40
2018-04-23T07:24:00.515Z,11.50
2018-04-23T07:25:00.545Z,15.60
2018-04-23T07:26:00.567Z,8.10
2018-04-23T07:27:00.589Z,9.50
2018-04-23T07:28:00.622Z,9.20
2018-04-23T07:29:00.643Z,11.20
2018-04-23T07:30:00.665Z,9.70
2018-04-23T07:31:00.699Z,9.60
2018-04-23T07:32:00.721Z,7.00
2018-04-23T07:33:00.749Z,10.90
2018-04-23T07:34:00.776Z,12.20
2018-04-23T07:35:00.798Z,10.40
2018-04-23T07:36:00.835Z,7.30
2018-04-23T07:37:00.853Z,10.30
2018-04-23T07:38:00.888Z,9.40
2018-04-23T07:39:00.909Z,7.00
2018-04-23T07:40:00.956Z,8.30
2018-04-23T07:41:00.963Z,6.10
2018-04-23T07:42:00.998Z,10.50
2018-04-23T07:43:01.020Z,10.50
2018-04-23T07:44:01.053Z,7.00
2018-04-23T07:45:01.088Z,9.30
2018-04-23T07:46:01.110Z,10.80
2018-04-23T07:47:01.143Z,9.00
2018-04-23T07:48:01.165Z,10.40
2018-04-23T07:49:01.198Z,8.30
2018-04-23T07:50:01.231Z,8.60
2018-04-23T07:51:01.253Z,7.80
2018-04-23T07:52:01.289Z,8.00
2018-04-23T07:53:01.338Z,8.70
2018-04-23T07:54:01.343Z,8.80
2018-04-23T07:55:01.378Z,8.30
2018-04-23T07:56:01.415Z,12.70
2018-04-23T07:57:01.444Z,10.20
2018-04-23T07:58:01.471Z,15.50
2018-04-23T07:59:01.499Z,9.90
2018-04-23T08:00:01.548Z,9.40
2018-04-23T08:01:01.555Z,14.70
2018-04-23T08:02:01.587Z,10.50
2018-04-23T08:03:01.622Z,11.30
2018-04-23T08:04:01.655Z,12.00
2018-04-23T08:05:01.695Z,11.10
2018-04-23T08:06:01.711Z,11.30
2018-04-23T08:07:01.744Z,11.70
2018-04-23T08:08:01.787Z,14.00
2018-04-23T08:09:01.800Z,9.40
2018-04-23T08:10:01.834Z,8.70
2018-04-23T08:11:01.868Z,12.60
2018-04-23T08:12:01.900Z,9.80
2018-04-23T08:13:01.923Z,10.70
2018-04-23T08:14:01.961Z,10.50
2018-04-23T08:15:01.990Z,9.60
2018-04-23T08:16:02.011Z,9.70
2018-04-23T08:17:02.046Z,11.20
2018-04-23T08:18:02.067Z,8.10
2018-04-23T08:19:02.100Z,8.70
2018-04-23T08:20:02.136Z,9.60
2018-04-23T08:21:02.164Z,8.80
2018-04-23T08:22:02.189Z,9.20
2018-04-23T08:23:02.224Z,8.10
2018-04-23T08:24:02.250Z,9.30
2018-04-23T08:25:02.280Z,7.90
2018-04-23T08:26:02.312Z,10.60
2018-04-23T08:27:02.333Z,10.10
2018-04-23T08:28:02.369Z,9.10
2018-04-23T08:29:02.389Z,10.40
2018-04-23T08:30:02.423Z,8.40
2018-04-23T08:31:02.456Z,8.40
2018-04-23T08:32:02.562Z,7.70
2018-04-23T08:33:02.511Z,10.00
2018-04-23T08:34:02.580Z,9.90
2018-04-23T08:35:02.580Z,8.10
2018-04-23T08:36:02.612Z,9.60
2018-04-23T08:37:02.635Z,9.40
2018-04-23T08:38:02.657Z,7.50
2018-04-23T08:39:02.690Z,10.00
2018-04-23T08:40:02.726Z,7.90
2018-04-23T08:41:02.748Z,7.10
2018-04-23T08:42:02.779Z,9.90
2018-04-23T08:43:02.813Z,6.50
2018-04-23T08:44:02.848Z,6.50
2018-04-23T08:45:02.869Z,6.50
2018-04-23T08:46:02.903Z,8.70
2018-04-23T08:47:02.926Z,5.50
2018-04-23T08:48:02.960Z,9.80
2018-04-23T08:49:02.995Z,8.90
2018-04-23T08:50:03.015Z,6.70
2018-04-23T08:51:03.051Z,6.50
2018-04-23T08:52:03.082Z,9.60
2018-04-23T08:53:03.104Z,6.10
2018-04-23T08:54:03.137Z,6.00
2018-04-23T08:55:03.172Z,6.10
2018-04-23T08:56:03.193Z,7.60
2018-04-23T08:57:03.227Z,7.90
2018-04-23T08:58:03.260Z,11.20
2018-04-23T08:59:03.281Z,7.50
2018-04-23T09:00:03.361Z,11.50
2018-04-23T09:01:03.349Z,6.90
2018-04-23T09:02:03.373Z,6.20
2018-04-23T09:03:03.406Z,10.80
2018-04-23T09:04:03.427Z,5.40
2018-04-23T09:05:03.460Z,10.60
2018-04-23T09:06:03.494Z,5.10
2018-04-23T09:07:03.516Z,6.90
2018-04-23T09:08:03.549Z,7.10
2018-04-23T09:09:03.572Z,8.50
2018-04-23T09:10:03.608Z,8.50
2018-04-23T09:11:03.638Z,13.10
2018-04-23T09:12:03.677Z,12.50
2018-04-23T09:13:03.694Z,5.60
2018-04-23T09:14:03.715Z,7.80
2018-04-23T09:15:03.749Z,8.60
2018-04-23T09:16:03.772Z,8.60
2018-04-23T09:17:03.804Z,6.80
2018-04-23T09:18:03.838Z,9.80
2018-04-23T09:19:03.876Z,10.10
2018-04-23T09:20:03.893Z,11.50
2018-04-23T09:21:03.926Z,8.80
2018-04-23T09:22:03.948Z,9.70
2018-04-23T09:23:03.982Z,8.40
2018-04-23T09:24:04.005Z,9.10
2018-04-23T09:25:04.039Z,8.60
2018-04-23T09:26:04.058Z,10.30
2018-04-23T09:27:04.093Z,11.80
2018-04-23T09:28:04.115Z,11.70
2018-04-23T09:29:04.148Z,9.00
2018-04-23T09:30:04.182Z,9.80
2018-04-23T09:31:04.204Z,12.40
2018-04-23T09:32:04.236Z,10.20
2018-04-23T09:33:04.263Z,12.60
2018-04-23T09:34:04.294Z,9.40
2018-04-23T09:35:04.325Z,9.20
2018-04-23T09:36:04.349Z,9.00
2018-04-23T09:37:04.381Z,11.30
2018-04-23T09:38:04.414Z,11.40
2018-04-23T09:39:04.449Z,11.30
2018-04-23T09:40:04.458Z,13.60
2018-04-23T09:41:04.492Z,12.40
2018-04-23T09:42:04.514Z,11.10
2018-04-23T09:43:04.546Z,15.00
2018-04-23T09:44:04.581Z,13.40
2018-04-23T09:45:04.602Z,10.40
2018-04-23T09:46:04.648Z,14.60
2018-04-23T09:47:04.656Z,12.00
2018-04-23T09:48:04.690Z,13.50
2018-04-23T09:49:04.713Z,15.60
2018-04-23T09:50:04.789Z,13.10
2018-04-23T09:51:04.767Z,16.20
2018-04-23T09:52:04.803Z,16.30
2018-04-23T09:53:04.823Z,14.70
2018-04-23T09:54:04.845Z,12.50
2018-04-23T09:55:04.878Z,15.40
2018-04-23T09:56:04.900Z,14.90
2018-04-23T09:57:04.946Z,12.90
2018-04-23T09:58:04.957Z,15.70
2018-04-23T09:59:04.993Z,15.30
2018-04-23T10:00:05.014Z,16.80
2018-04-23T10:01:05.037Z,15.50
2018-04-23T10:02:05.065Z,14.20
2018-04-23T10:03:05.087Z,14.60
2018-04-23T10:04:05.124Z,14.50
2018-04-23T10:05:05.142Z,19.40
2018-04-23T10:06:05.221Z,11.80
2018-04-23T10:07:05.198Z,15.30
2018-04-23T10:08:05.219Z,14.80
2018-04-23T10:09:05.244Z,19.00
2018-04-23T10:10:05.273Z,16.60
2018-04-23T10:11:05.295Z,14.50
2018-04-23T10:12:05.334Z,17.20
2018-04-23T10:13:05.350Z,15.20
2018-04-23T10:14:05.372Z,17.80
2018-04-23T10:15:05.405Z,15.40
2018-04-23T10:16:05.427Z,15.60
2018-04-23T10:17:05.448Z,15.10
2018-04-23T10:18:05.490Z,17.60
2018-04-23T10:19:05.503Z,14.70
2018-04-23T10:20:05.526Z,14.70
2018-04-23T10:21:05.559Z,17.40
2018-04-23T10:22:05.579Z,15.10
2018-04-23T10:23:05.619Z,18.50
2018-04-23T10:24:05.639Z,18.20
2018-04-23T10:25:05.659Z,18.20
2018-04-23T10:26:05.691Z,16.10
2018-04-23T10:27:05.712Z,15.40
2018-04-23T10:28:05.733Z,18.10
2018-04-23T10:29:05.772Z,19.50
2018-04-23T10:30:05.794Z,17.10
2018-04-23T10:31:05.811Z,18.30
2018-04-23T10:32:05.844Z,19.00
2018-04-23T10:33:05.868Z,17.00
2018-04-23T10:34:05.888Z,20.20
2018-04-23T10:35:05.922Z,16.00
2018-04-23T10:36:05.952Z,18.10
2018-04-23T10:37:05.976Z,16.40
2018-04-23T10:38:05.998Z,18.20
2018-04-23T10:39:06.021Z,15.60
2018-04-23T10:40:06.053Z,20.40
2018-04-23T10:41:06.075Z,16.50
2018-04-23T10:42:06.097Z,16.80
2018-04-23T10:43:06.130Z,17.80
2018-04-23T10:44:06.152Z,16.60
2018-04-23T10:45:06.173Z,16.10
2018-04-23T10:46:06.208Z,16.20
2018-04-23T10:47:06.228Z,16.80
2018-04-23T10:48:06.262Z,17.10
2018-04-23T10:49:06.301Z,16.80
2018-04-23T10:50:06.305Z,15.70
2018-04-23T10:51:06.350Z,16.70
2018-04-23T10:52:06.360Z,33.50
2018-04-23T10:53:06.384Z,23.50
2018-04-23T10:54:06.415Z,57.00
2018-04-23T10:55:06.437Z,19.60
2018-04-23T10:56:06.471Z,27.50
2018-04-23T10:57:06.492Z,19.30
2018-04-23T10:58:06.513Z,34.50
2018-04-23T10:59:06.547Z,18.70
2018-04-23T11:00:06.570Z,17.90
2018-04-23T11:01:06.609Z,16.60
2018-04-23T11:02:06.625Z,16.40
2018-04-23T11:03:06.657Z,16.80
2018-04-23T11:04:06.678Z,16.80
2018-04-23T11:05:06.700Z,16.00
2018-04-23T11:06:06.736Z,14.60
2018-04-23T11:07:06.755Z,19.20
2018-04-23T11:08:06.790Z,11.20
2018-04-23T11:09:06.810Z,14.20
2018-04-23T11:10:06.845Z,10.20
2018-04-23T11:11:06.879Z,11.00
2018-04-23T11:12:06.899Z,14.00
2018-04-23T11:13:06.936Z,12.70
2018-04-23T11:14:06.956Z,8.70
2018-04-23T11:15:06.990Z,10.50
2018-04-23T11:16:07.023Z,8.50
2018-04-23T11:17:07.056Z,9.90
2018-04-23T11:18:07.091Z,7.30
2018-04-23T11:19:07.113Z,10.50
2018-04-23T11:20:07.146Z,9.00
2018-04-23T11:21:07.181Z,10.50
2018-04-23T11:22:07.213Z,9.80
2018-04-23T11:23:07.248Z,9.10
2018-04-23T11:24:07.283Z,11.00
2018-04-23T11:25:07.348Z,8.40
2018-04-23T11:26:07.349Z,8.50
2018-04-23T11:27:07.384Z,12.00
2018-04-23T11:28:07.418Z,10.20
2018-04-23T11:29:07.455Z,10.90
2018-04-23T11:30:07.486Z,10.30
2018-04-23T11:31:07.531Z,7.20
2018-04-23T11:32:07.566Z,9.00
2018-04-23T11:33:07.599Z,8.40
2018-04-23T11:34:07.633Z,11.00
2018-04-23T11:35:07.667Z,12.20
2018-04-23T11:36:07.701Z,14.00
2018-04-23T11:37:07.736Z,7.40
2018-04-23T11:38:07.784Z,10.70
2018-04-23T11:39:07.819Z,9.60
2018-04-23T11:40:07.849Z,10.70
2018-04-23T11:41:07.882Z,10.80
2018-04-23T11:42:07.916Z,10.80
2018-04-23T11:43:07.950Z,16.10
2018-04-23T11:44:07.998Z,11.20
2018-04-23T11:45:08.049Z,8.40
2018-04-23T11:46:08.073Z,12.30
2018-04-23T11:47:08.110Z,10.40
2018-04-23T11:48:08.133Z,9.80
2018-04-23T11:49:08.180Z,12.30
2018-04-23T11:50:08.212Z,10.10
2018-04-23T11:51:08.247Z,9.30
2018-04-23T11:52:08.282Z,12.40
2018-04-23T11:53:08.336Z,12.60
2018-04-23T11:54:08.361Z,13.90
2018-04-23T11:55:08.396Z,8.80
2018-04-23T11:56:08.429Z,12.70
2018-04-23T11:57:08.475Z,14.10
2018-04-23T11:58:08.509Z,11.40
2018-04-23T11:59:08.545Z,14.80
2018-04-23T12:00:08.590Z,12.10
2018-04-23T12:01:08.622Z,12.70
2018-04-23T12:02:08.657Z,16.10
2018-04-23T12:03:08.693Z,15.70
2018-04-23T12:04:08.749Z,16.60
2018-04-23T12:05:08.775Z,11.80
2018-04-23T12:06:08.804Z,14.80
2018-04-23T12:07:08.854Z,12.60
2018-04-23T12:08:08.886Z,11.20
2018-04-23T12:09:08.919Z,10.10
2018-04-23T12:10:08.966Z,14.90
2018-04-23T12:11:09.000Z,12.30
2018-04-23T12:12:09.034Z,11.30
2018-04-23T12:13:09.070Z,12.00
2018-04-23T12:14:09.115Z,13.50
2018-04-23T12:15:09.147Z,12.00
2018-04-23T12:16:09.234Z,10.70
2018-04-23T12:17:09.228Z,11.80
2018-04-23T12:18:09.274Z,13.50
2018-04-23T12:19:09.295Z,13.80
2018-04-23T12:20:09.344Z,14.60
2018-04-23T12:21:09.376Z,11.00
2018-04-23T12:22:09.410Z,12.40
2018-04-23T12:23:09.444Z,13.80
2018-04-23T12:24:09.489Z,11.50
2018-04-23T12:25:09.524Z,12.40
2018-04-23T12:26:09.559Z,14.30
2018-04-23T12:27:09.604Z,10.80
2018-04-23T12:28:09.642Z,11.10
2018-04-23T12:29:09.671Z,12.40
2018-04-23T12:30:09.707Z,15.70
2018-04-23T12:31:09.754Z,12.00
2018-04-23T12:32:09.788Z,15.70
2018-04-23T12:33:09.820Z,15.00
2018-04-23T12:34:09.853Z,11.50
2018-04-23T12:35:09.899Z,13.60
2018-04-23T12:36:09.935Z,12.90
2018-04-23T12:37:09.973Z,12.80
2018-04-23T12:38:10.002Z,11.30
2018-04-23T12:39:10.035Z,13.80
2018-04-23T12:40:10.083Z,16.10
2018-04-23T12:41:10.117Z,11.60
2018-04-23T12:42:10.149Z,14.90
2018-04-23T12:43:10.192Z,14.30
2018-04-23T12:44:10.217Z,14.40
2018-04-23T12:45:10.253Z,12.30
2018-04-23T12:46:10.356Z,10.00
2018-04-23T12:47:10.320Z,14.50
2018-04-23T12:48:10.358Z,13.90
2018-04-23T12:49:10.388Z,10.50
2018-04-23T12:50:10.423Z,13.00
2018-04-23T12:51:10.456Z,10.70
2018-04-23T12:52:10.489Z,12.70
2018-04-23T12:53:10.523Z,14.70
2018-04-23T12:54:10.556Z,14.50
2018-04-23T12:55:10.591Z,10.60
2018-04-23T12:56:10.625Z,14.30
2018-04-23T12:57:10.660Z,13.40
2018-04-23T12:58:10.705Z,13.70
2018-04-23T12:59:10.727Z,14.60
2018-04-23T13:00:10.762Z,14.40